Time;durP1;ratioP1;P1;durP2;ratioP2;P2;SDS_P1;SDS_P2;PMS_P1;PMS_P2;Temp;Humidity;BMP_temperature;BMP_pressure;BME280_temperature;BME280_humidity;BME280_pressure;Samples;Min_cycle;Max_cycle;Signal;HPM_P1;HPM_P2
2022/10/04 00:01:39;;;;;;;4.73;2.40;;;8.70;80.80;;;;;;5009288;28;20523;-62
2022/10/04 00:04:12;;;;;;;2.93;2.00;;;8.70;80.80;;;;;;4992952;28;20474;-60
2022/10/04 00:06:48;;;;;;;3.87;2.37;;;8.60;81.00;;;;;;4988218;28;20420;-62
2022/10/04 00:09:24;;;;;;;3.33;2.60;;;8.50;81.00;;;;;;5024384;28;20423;-61
2022/10/04 00:11:53;;;;;;;6.50;2.60;;;8.50;81.00;;;;;;4986475;28;20219;-62
2022/10/04 00:14:24;;;;;;;3.63;2.47;;;8.40;81.20;;;;;;5002314;28;20443;-61
2022/10/04 00:16:51;;;;;;;3.13;2.83;;;8.30;81.30;;;;;;4992683;28;20451;-61
2022/10/04 00:19:43;;;;;;;5.77;2.70;;;8.30;81.70;;;;;;4980461;28;20494;-61
2022/10/04 00:22:16;;;;;;;4.40;2.77;;;8.30;81.90;;;;;;4984109;28;20429;-61
2022/10/04 00:25:08;;;;;;;5.70;2.43;;;8.40;81.60;;;;;;4982886;28;20436;-62
2022/10/04 00:27:36;;;;;;;5.00;2.37;;;8.50;81.50;;;;;;4987607;28;20472;-61
2022/10/04 00:30:02;;;;;;;4.60;2.40;;;8.30;81.40;;;;;;5006988;28;20470;-62
2022/10/04 00:32:40;;;;;;;3.13;2.40;;;8.20;81.30;;;;;;5026758;28;20435;-61
2022/10/04 00:35:23;;;;;;;4.17;2.47;;;8.20;81.90;;;;;;5019161;28;20177;-61
2022/10/04 00:38:15;;;;;;;3.10;2.47;;;8.20;81.60;;;;;;5027200;28;20431;-61
2022/10/04 00:40:54;;;;;;;3.07;2.60;;;8.00;82.00;;;;;;4987033;28;20476;-62
2022/10/04 00:43:41;;;;;;;4.83;2.87;;;8.10;82.00;;;;;;4983126;28;20412;-61
2022/10/04 00:46:22;;;;;;;3.30;2.30;;;8.10;82.20;;;;;;4983932;28;20468;-61
2022/10/04 00:49:05;;;;;;;3.80;2.43;;;8.00;82.20;;;;;;5003759;28;20423;-60
2022/10/04 00:51:56;;;;;;;6.90;2.60;;;8.00;82.10;;;;;;4990345;28;20511;-62
2022/10/04 00:54:30;;;;;;;3.67;2.80;;;8.00;82.30;;;;;;4978100;28;20444;-61
2022/10/04 00:57:05;;;;;;;8.00;2.83;;;8.00;81.90;;;;;;4982135;28;20426;-62
2022/10/04 00:59:34;;;;;;;4.53;2.40;;;7.90;82.70;;;;;;5016074;28;20472;-62
2022/10/04 01:02:20;;;;;;;2.40;2.20;;;7.80;82.50;;;;;;4989711;28;20446;-61
2022/10/04 01:04:59;;;;;;;4.40;2.40;;;7.90;82.30;;;;;;5020400;28;20440;-62
2022/10/04 01:07:48;;;;;;;3.10;2.50;;;8.00;82.40;;;;;;5025584;28;20442;-61
2022/10/04 01:10:20;;;;;;;7.23;2.70;;;8.00;81.80;;;;;;4976266;28;20420;-61
2022/10/04 01:13:04;;;;;;;2.27;2.07;;;7.80;82.30;;;;;;5018330;28;20468;-61
2022/10/04 01:15:43;;;;;;;6.90;2.33;;;7.90;82.40;;;;;;5015790;28;20439;-61
2022/10/04 01:18:11;;;;;;;4.63;2.50;;;7.90;82.10;;;;;;4977937;28;20497;-61
2022/10/04 01:20:48;;;;;;;6.67;2.47;;;7.90;82.00;;;;;;4989149;28;20486;-62
2022/10/04 01:23:35;;;;;;;5.53;2.17;;;7.80;81.70;;;;;;5014758;28;20523;-62
2022/10/04 01:26:04;;;;;;;2.83;2.23;;;7.80;82.00;;;;;;4989927;28;20518;-60
2022/10/04 01:28:32;;;;;;;3.47;1.90;;;7.80;82.20;;;;;;4980350;28;20441;-62
2022/10/04 01:30:58;;;;;;;2.70;2.50;;;7.80;82.40;;;;;;4992491;28;20439;-62
2022/10/04 01:33:24;;;;;;;3.77;2.37;;;7.90;82.20;;;;;;4988944;28;20443;-62
2022/10/04 01:35:50;;;;;;;8.07;2.33;;;7.90;81.90;;;;;;4974515;28;20484;-61
2022/10/04 01:38:16;;;;;;;5.23;2.10;;;7.80;82.20;;;;;;4979760;28;20268;-61
2022/10/04 01:40:49;;;;;;;3.80;2.50;;;7.80;82.30;;;;;;4978614;28;20551;-62
2022/10/04 01:43:26;;;;;;;4.20;1.80;;;7.80;82.40;;;;;;4974826;28;20251;-61
2022/10/04 01:46:15;;;;;;;1.87;1.67;;;7.90;81.90;;;;;;4980228;28;20466;-61
2022/10/04 01:48:43;;;;;;;5.67;2.60;;;7.80;81.70;;;;;;4980587;28;20527;-61
2022/10/04 01:51:22;;;;;;;5.30;2.20;;;7.70;81.90;;;;;;5015771;28;20444;-62
2022/10/04 01:54:01;;;;;;;3.47;2.33;;;7.60;82.20;;;;;;4987476;28;20500;-62
2022/10/04 01:56:41;;;;;;;3.50;2.07;;;7.60;82.30;;;;;;5020646;28;20445;-61
2022/10/04 01:59:14;;;;;;;4.50;2.20;;;7.60;82.50;;;;;;4989948;28;20462;-61
2022/10/04 02:01:51;;;;;;;3.33;2.40;;;7.60;82.50;;;;;;4984402;28;20507;-61
2022/10/04 02:04:20;;;;;;;2.20;2.00;;;7.50;82.60;;;;;;4987822;28;20425;-62
2022/10/04 02:06:53;;;;;;;4.93;2.17;;;7.30;82.80;;;;;;4980915;28;20516;-60
2022/10/04 02:09:22;;;;;;;3.97;2.17;;;7.30;83.40;;;;;;4976029;28;20527;-62
2022/10/04 02:11:52;;;;;;;8.43;2.20;;;7.30;83.50;;;;;;4993974;28;20435;-61
2022/10/04 02:14:22;;;;;;;5.50;2.23;;;7.30;83.20;;;;;;4999094;28;20515;-61
2022/10/04 02:16:51;;;;;;;2.47;2.27;;;7.40;83.10;;;;;;4977963;28;20447;-62
2022/10/04 02:19:18;;;;;;;5.63;2.43;;;7.30;83.00;;;;;;4981690;28;20452;-61
2022/10/04 02:21:45;;;;;;;6.77;2.43;;;7.30;82.90;;;;;;5010617;28;20461;-61
2022/10/04 02:24:12;;;;;;;2.40;2.20;;;7.30;82.90;;;;;;5003227;28;20420;-61
2022/10/04 02:26:38;;;;;;;2.30;1.90;;;7.30;82.90;;;;;;4983112;28;20456;-61
2022/10/04 02:29:03;;;;;;;2.80;1.93;;;7.30;83.20;;;;;;4975272;28;20443;-61
2022/10/04 02:34:17;;;;;;;2.63;2.20;;;7.30;83.30;;;;;;4992978;28;20262;-61
2022/10/04 02:36:43;;;;;;;2.83;2.13;;;7.20;83.50;;;;;;4989276;28;20475;-61
2022/10/04 02:39:18;;;;;;;5.30;2.73;;;7.20;83.40;;;;;;4979407;28;20435;-62
2022/10/04 02:41:47;;;;;;;2.23;2.00;;;7.30;83.30;;;;;;4974149;28;20216;-62
2022/10/04 02:44:31;;;;;;;5.13;2.30;;;7.30;83.10;;;;;;5006868;28;20431;-61
2022/10/04 02:47:12;;;;;;;4.97;2.30;;;7.30;83.20;;;;;;5017060;28;20539;-62
2022/10/04 02:49:43;;;;;;;6.13;2.00;;;7.30;82.70;;;;;;5015246;28;20504;-61
2022/10/04 02:52:24;;;;;;;3.73;2.17;;;7.30;82.60;;;;;;5009323;28;20448;-61
2022/10/04 02:55:17;;;;;;;2.90;2.10;;;7.30;82.70;;;;;;4993410;28;20431;-61
2022/10/04 02:57:43;;;;;;;2.57;1.93;;;7.10;82.70;;;;;;5023861;28;20431;-61
2022/10/04 03:00:18;;;;;;;1.80;1.60;;;7.10;83.60;;;;;;4978024;28;20467;-62
2022/10/04 03:03:22;;;;;;;4.50;2.30;;;7.10;82.90;;;;;;4984603;28;20426;-61
2022/10/04 03:06:06;;;;;;;2.33;2.10;;;7.10;83.00;;;;;;5012178;28;20518;-61
2022/10/04 03:08:42;;;;;;;3.33;2.20;;;7.10;83.00;;;;;;4994141;28;20434;-61
2022/10/04 03:11:10;;;;;;;3.03;2.10;;;7.00;83.00;;;;;;5012220;28;20526;-61
2022/10/04 03:13:38;;;;;;;3.07;2.40;;;6.90;83.60;;;;;;5027039;28;20513;-61
2022/10/04 03:16:05;;;;;;;5.97;2.17;;;6.90;84.10;;;;;;4990476;28;20439;-61
2022/10/04 03:18:32;;;;;;;3.93;1.90;;;7.00;83.90;;;;;;4980513;28;20863;-62
2022/10/04 03:21:10;;;;;;;3.87;1.90;;;7.00;83.60;;;;;;4966565;28;20471;-61
2022/10/04 03:23:38;;;;;;;2.80;1.90;;;7.00;83.90;;;;;;5023995;28;20450;-61
2022/10/04 03:26:38;;;;;;;2.77;1.77;;;7.00;83.70;;;;;;4979691;28;20439;-62
2022/10/04 03:29:10;;;;;;;2.80;2.50;;;7.00;83.80;;;;;;4984986;28;20436;-62
2022/10/04 03:31:42;;;;;;;3.47;2.23;;;7.00;83.60;;;;;;4980616;28;20463;-62
2022/10/04 03:34:16;;;;;;;2.73;2.00;;;7.10;83.50;;;;;;4977826;28;20455;-62
2022/10/04 03:36:45;;;;;;;3.57;2.17;;;7.10;83.70;;;;;;4979006;28;20490;-62
2022/10/04 03:39:15;;;;;;;2.37;2.07;;;7.10;83.60;;;;;;5014731;28;20440;-61
2022/10/04 03:41:41;;;;;;;3.60;2.40;;;7.20;83.40;;;;;;4992875;28;20490;-61
2022/10/04 03:44:15;;;;;;;3.47;1.77;;;7.20;83.30;;;;;;4982812;28;20472;-61
2022/10/04 03:46:42;;;;;;;3.47;2.60;;;7.10;83.40;;;;;;4993604;28;20197;-62
2022/10/04 03:49:10;;;;;;;2.87;2.40;;;7.10;83.30;;;;;;4972553;28;20437;-61
2022/10/04 03:51:42;;;;;;;2.60;2.07;;;7.00;83.10;;;;;;5007442;28;20431;-62
2022/10/04 03:54:14;;;;;;;5.03;2.20;;;7.00;83.60;;;;;;4993089;28;20431;-61
2022/10/04 03:56:40;;;;;;;2.83;2.37;;;7.00;83.10;;;;;;5009523;28;20447;-61
2022/10/04 03:59:06;;;;;;;5.23;1.90;;;7.10;83.00;;;;;;4995431;28;20424;-61
2022/10/04 04:01:39;;;;;;;2.13;1.93;;;7.10;83.10;;;;;;5019691;28;20189;-62
2022/10/04 04:04:11;;;;;;;2.80;2.10;;;7.20;83.20;;;;;;4980165;28;20417;-62
2022/10/04 04:06:46;;;;;;;4.37;2.23;;;7.10;82.80;;;;;;5015041;28;20436;-62
2022/10/04 04:09:24;;;;;;;2.63;2.07;;;7.10;83.30;;;;;;5023271;28;20509;-61
2022/10/04 04:11:52;;;;;;;3.73;1.97;;;7.10;83.00;;;;;;4990488;28;20434;-62
2022/10/04 04:14:25;;;;;;;2.50;2.10;;;7.00;83.20;;;;;;5001589;28;20428;-61
2022/10/04 04:17:15;;;;;;;2.93;2.03;;;7.00;83.50;;;;;;4980660;28;20471;-61
2022/10/04 04:19:41;;;;;;;3.63;2.27;;;7.10;83.70;;;;;;4982152;28;20461;-62
2022/10/04 04:22:14;;;;;;;2.37;2.10;;;7.20;83.90;;;;;;4983407;28;20428;-61
2022/10/04 04:24:42;;;;;;;2.70;2.20;;;7.30;84.00;;;;;;4993435;28;20433;-62
2022/10/04 04:27:09;;;;;;;2.37;2.10;;;7.30;83.70;;;;;;4976554;28;20443;-63
2022/10/04 04:29:52;;;;;;;4.07;2.23;;;7.40;83.90;;;;;;5014527;28;20430;-63
2022/10/04 04:32:23;;;;;;;5.83;2.10;;;7.40;83.50;;;;;;4983528;28;20430;-64
2022/10/04 04:34:56;;;;;;;4.23;2.50;;;7.40;83.50;;;;;;4983148;28;20444;-63
2022/10/04 04:37:22;;;;;;;5.73;2.73;;;7.30;83.60;;;;;;4983162;28;20498;-61
2022/10/04 04:39:53;;;;;;;3.00;2.37;;;7.30;83.50;;;;;;4984765;28;20468;-60
2022/10/04 04:42:33;;;;;;;3.47;2.60;;;7.30;83.30;;;;;;4984622;28;20208;-60
2022/10/04 04:45:13;;;;;;;3.90;2.20;;;7.30;83.30;;;;;;4985389;28;20436;-62
2022/10/04 04:47:45;;;;;;;4.50;2.50;;;7.30;83.40;;;;;;5012602;28;20496;-61
2022/10/04 04:50:54;;;;;;;4.90;2.90;;;7.20;83.50;;;;;;4986637;28;20436;-62
2022/10/04 04:53:27;;;;;;;2.30;2.10;;;7.20;83.60;;;;;;4978342;28;20456;-62
2022/10/04 04:55:59;;;;;;;3.53;2.27;;;7.10;83.60;;;;;;4989259;28;20454;-62
2022/10/04 04:58:45;;;;;;;3.37;2.70;;;7.10;83.90;;;;;;4993825;28;20572;-62
2022/10/04 05:01:25;;;;;;;3.80;2.77;;;7.10;83.50;;;;;;4987535;28;20507;-62
2022/10/04 05:04:12;;;;;;;5.47;2.70;;;7.10;83.70;;;;;;5015832;28;20430;-62
2022/10/04 05:06:40;;;;;;;2.57;2.27;;;7.20;83.50;;;;;;5021314;28;20431;-61
2022/10/04 05:09:29;;;;;;;8.00;2.30;;;7.10;84.30;;;;;;4976411;28;20435;-62
2022/10/04 05:12:11;;;;;;;3.87;2.17;;;7.20;84.30;;;;;;5023928;28;20434;-61
2022/10/04 05:14:43;;;;;;;2.67;2.17;;;7.00;84.10;;;;;;4994208;28;20438;-60
2022/10/04 05:17:26;;;;;;;3.07;2.20;;;7.10;84.70;;;;;;4990388;28;20427;-60
2022/10/04 05:19:56;;;;;;;2.87;2.67;;;7.10;84.60;;;;;;4978389;28;20489;-60
2022/10/04 05:22:24;;;;;;;5.93;2.73;;;7.20;84.50;;;;;;4987785;28;20471;-60
2022/10/04 05:24:57;;;;;;;2.63;2.40;;;7.30;84.50;;;;;;4985718;28;20427;-60
2022/10/04 05:27:28;;;;;;;3.93;2.97;;;7.30;84.40;;;;;;4980033;28;20462;-60
2022/10/04 05:30:08;;;;;;;3.83;3.23;;;7.40;84.30;;;;;;4977798;28;20519;-60
2022/10/04 05:32:52;;;;;;;6.17;4.27;;;7.50;83.70;;;;;;4979398;28;20439;-61
2022/10/04 05:35:21;;;;;;;4.70;3.43;;;7.40;83.70;;;;;;5024020;28;20487;-61
2022/10/04 05:38:07;;;;;;;4.00;3.57;;;7.40;84.30;;;;;;4988154;28;20490;-62
2022/10/04 05:40:50;;;;;;;5.90;4.03;;;7.50;84.30;;;;;;4987662;28;20470;-61
2022/10/04 05:43:33;;;;;;;5.90;3.63;;;7.40;83.90;;;;;;4981637;28;20462;-62
2022/10/04 05:46:32;;;;;;;4.03;3.00;;;7.30;84.10;;;;;;5007325;28;20439;-61
2022/10/04 05:49:12;;;;;;;4.20;3.17;;;7.30;84.70;;;;;;5011991;28;20478;-61
2022/10/04 05:51:59;;;;;;;5.33;3.83;;;7.30;84.50;;;;;;4990656;28;20455;-62
2022/10/04 05:54:27;;;;;;;5.33;3.20;;;7.30;85.40;;;;;;5008355;28;20527;-61
2022/10/04 05:57:14;;;;;;;5.93;3.33;;;7.30;85.40;;;;;;5017477;28;20456;-62
2022/10/04 06:00:05;;;;;;;4.90;2.70;;;7.50;85.50;;;;;;4978589;28;20471;-61
2022/10/04 06:03:16;;;;;;;4.40;2.80;;;7.50;85.40;;;;;;4986966;28;20424;-61
2022/10/04 06:06:15;;;;;;;4.17;2.60;;;7.60;85.10;;;;;;4992649;28;20531;-61
2022/10/04 06:08:59;;;;;;;5.07;2.93;;;7.80;85.50;;;;;;5006761;28;20500;-61
2022/10/04 06:11:39;;;;;;;4.47;3.00;;;7.70;85.80;;;;;;4979251;28;20482;-61
2022/10/04 06:14:36;;;;;;;5.13;2.97;;;7.80;86.10;;;;;;5009351;28;20432;-62
2022/10/04 06:17:47;;;;;;;3.50;2.60;;;8.00;86.10;;;;;;4981266;28;20448;-61
2022/10/04 06:20:43;;;;;;;3.97;3.57;;;8.00;85.80;;;;;;4979806;28;20470;-62
2022/10/04 06:23:15;;;;;;;7.63;4.20;;;8.10;85.20;;;;;;5022961;28;20439;-61
2022/10/04 06:25:52;;;;;;;5.63;4.40;;;8.20;85.40;;;;;;4991604;28;20482;-61
2022/10/04 06:28:21;;;;;;;5.07;3.70;;;8.20;85.30;;;;;;4977097;28;20454;-61
2022/10/04 06:30:58;;;;;;;6.30;3.90;;;8.30;85.30;;;;;;4985256;28;20448;-61
2022/10/04 06:33:57;;;;;;;3.80;3.47;;;8.30;85.10;;;;;;5009789;28;20451;-61
2022/10/04 06:36:41;;;;;;;5.13;3.33;;;8.50;85.00;;;;;;5024670;28;20491;-61
2022/10/04 06:39:07;;;;;;;7.17;4.30;;;8.50;84.90;;;;;;5016041;28;20467;-61
2022/10/04 06:42:03;;;;;;;4.43;3.10;;;8.60;84.90;;;;;;5018890;28;20531;-62
2022/10/04 06:44:37;;;;;;;5.67;3.33;;;8.60;84.60;;;;;;4984047;28;20211;-61
2022/10/04 06:47:15;;;;;;;3.90;3.40;;;8.70;84.60;;;;;;5020457;28;20439;-62
2022/10/04 06:49:55;;;;;;;9.17;3.73;;;8.70;84.20;;;;;;5018898;28;20496;-62
2022/10/04 06:52:33;;;;;;;6.03;3.23;;;8.80;84.40;;;;;;4992423;28;20443;-61
2022/10/04 06:55:17;;;;;;;5.80;3.60;;;8.80;84.30;;;;;;4986391;28;20447;-62
2022/10/04 06:58:11;;;;;;;7.07;4.03;;;8.80;84.10;;;;;;5019570;28;20435;-62
2022/10/04 07:00:51;;;;;;;7.80;3.73;;;8.90;83.90;;;;;;5013332;28;20472;-62
2022/10/04 07:03:36;;;;;;;6.10;4.70;;;8.80;83.10;;;;;;4992179;28;20489;-61
2022/10/04 07:06:04;;;;;;;8.80;4.00;;;8.90;83.00;;;;;;4986475;28;20440;-61
2022/10/04 07:08:46;;;;;;;6.90;3.77;;;8.90;83.20;;;;;;5026954;28;20539;-61
2022/10/04 07:11:36;;;;;;;13.90;5.20;;;8.90;83.40;;;;;;4989324;28;20567;-62
2022/10/04 07:14:04;;;;;;;9.53;4.40;;;9.00;83.80;;;;;;4995927;28;20455;-61
2022/10/04 07:17:00;;;;;;;8.83;4.40;;;9.00;83.60;;;;;;4989791;28;20440;-61
2022/10/04 07:19:32;;;;;;;9.60;4.23;;;9.00;83.60;;;;;;4988643;28;20430;-61
2022/10/04 07:22:07;;;;;;;6.67;4.73;;;9.10;83.50;;;;;;5016009;28;20419;-61
2022/10/04 07:25:13;;;;;;;9.97;4.27;;;9.10;83.60;;;;;;5018266;28;20446;-61
2022/10/04 07:27:46;;;;;;;8.37;4.00;;;9.20;83.60;;;;;;4981396;28;20299;-61
2022/10/04 07:30:17;;;;;;;5.70;3.70;;;9.30;83.20;;;;;;4989463;28;20447;-62
2022/10/04 07:32:50;;;;;;;8.30;4.03;;;9.30;83.20;;;;;;4992333;28;20184;-61
2022/10/04 07:35:45;;;;;;;5.80;3.47;;;9.40;83.40;;;;;;4980545;28;20496;-61
2022/10/04 07:38:16;;;;;;;5.30;3.70;;;9.50;83.40;;;;;;4988734;28;20455;-62
2022/10/04 07:41:09;;;;;;;7.57;4.43;;;9.60;83.30;;;;;;5012209;28;20229;-62
2022/10/04 07:43:46;;;;;;;7.03;3.63;;;9.60;83.00;;;;;;4985982;28;20184;-61
2022/10/04 07:46:17;;;;;;;6.70;3.20;;;9.70;83.10;;;;;;5013715;28;20193;-61
2022/10/04 07:48:43;;;;;;;5.30;3.27;;;9.80;82.90;;;;;;4992346;28;20192;-62
2022/10/04 07:51:14;;;;;;;5.83;3.40;;;9.80;81.40;;;;;;4991679;28;20204;-62
2022/10/04 07:53:45;;;;;;;9.57;3.60;;;9.80;81.80;;;;;;5016544;28;20245;-61
2022/10/04 07:56:18;;;;;;;7.77;3.33;;;9.90;82.10;;;;;;4991470;28;20455;-62
2022/10/04 07:59:11;;;;;;;5.63;3.53;;;10.00;82.30;;;;;;4977492;28;20180;-61
2022/10/04 08:02:12;;;;;;;5.00;3.23;;;10.10;82.10;;;;;;5015449;28;20221;-61
2022/10/04 08:05:04;;;;;;;3.53;2.70;;;10.10;82.30;;;;;;5019009;28;20193;-61
2022/10/04 08:07:54;;;;;;;4.63;3.20;;;10.20;82.20;;;;;;4990418;28;20180;-61
2022/10/04 08:10:38;;;;;;;5.53;3.17;;;10.20;81.10;;;;;;5016997;28;20184;-61
2022/10/04 08:13:51;;;;;;;6.83;3.53;;;10.30;81.50;;;;;;5021233;28;20185;-62
2022/10/04 08:16:34;;;;;;;5.13;3.80;;;10.30;80.70;;;;;;4979425;28;20204;-61
2022/10/04 08:19:26;;;;;;;10.17;4.13;;;10.30;79.60;;;;;;4983263;28;20181;-62
2022/10/04 08:22:04;;;;;;;6.57;3.57;;;10.30;79.80;;;;;;5011150;28;20267;-62
2022/10/04 08:24:33;;;;;;;6.50;3.53;;;10.40;77.50;;;;;;4983522;28;20201;-62
2022/10/04 08:29:41;;;;;;;6.00;2.90;;;10.50;78.10;;;;;;4989186;28;20192;-61
2022/10/04 08:30:39;;;;;;;4.43;3.07;;;10.60;78.00;;;;;;4988155;28;20188;-61
2022/10/04 08:33:41;;;;;;;5.33;3.23;;;10.60;79.00;;;;;;4995259;28;20188;-61
2022/10/04 08:36:46;;;;;;;6.03;3.20;;;10.70;79.60;;;;;;4978297;28;20224;-61
2022/10/04 08:39:40;;;;;;;4.57;2.97;;;10.70;80.60;;;;;;4989609;28;20339;-61
2022/10/04 08:42:49;;;;;;;7.10;3.73;;;10.80;80.20;;;;;;5007135;28;20189;-61
2022/10/04 08:45:42;;;;;;;6.80;3.87;;;10.80;80.60;;;;;;4987217;28;20271;-62
2022/10/04 08:48:37;;;;;;;6.70;3.00;;;10.90;78.10;;;;;;5018477;28;20191;-61
2022/10/04 08:51:12;;;;;;;7.20;3.57;;;11.00;79.70;;;;;;4976402;28;20185;-61
2022/10/04 08:53:52;;;;;;;6.30;3.70;;;11.00;80.60;;;;;;5010815;28;20184;-61
2022/10/04 08:56:25;;;;;;;6.13;3.40;;;11.10;80.20;;;;;;5020479;28;20199;-61
2022/10/04 08:59:01;;;;;;;7.47;3.57;;;11.20;78.80;;;;;;5005397;28;20181;-61
2022/10/04 09:01:45;;;;;;;3.07;2.40;;;11.20;79.60;;;;;;4983214;28;20208;-61
2022/10/04 09:04:32;;;;;;;3.93;2.50;;;11.30;80.00;;;;;;4986052;28;20184;-61
2022/10/04 09:07:06;;;;;;;7.47;3.10;;;11.30;79.70;;;;;;5014008;28;20264;-61
2022/10/04 09:10:00;;;;;;;5.43;2.67;;;11.40;75.70;;;;;;5012640;28;20216;-61
2022/10/04 09:12:43;;;;;;;3.97;2.53;;;11.80;73.50;;;;;;4988855;28;20195;-61
2022/10/04 09:15:50;;;;;;;4.07;2.67;;;11.80;74.40;;;;;;5018987;28;20177;-61
2022/10/04 09:18:49;;;;;;;3.93;2.40;;;11.90;70.60;;;;;;4995554;28;20204;-61
2022/10/04 09:21:27;;;;;;;3.47;3.07;;;12.20;71.90;;;;;;5008767;28;20217;-61
2022/10/04 09:23:56;;;;;;;3.37;3.03;;;12.20;74.40;;;;;;4993270;28;20203;-61
2022/10/04 09:27:03;;;;;;;6.00;2.87;;;12.30;72.30;;;;;;5019671;28;20192;-61
2022/10/04 09:29:50;;;;;;;5.53;2.57;;;12.30;73.20;;;;;;4977144;28;20283;-61
2022/10/04 09:32:27;;;;;;;3.20;2.13;;;12.80;69.00;;;;;;5017730;28;20240;-61
2022/10/04 09:35:05;;;;;;;3.30;2.30;;;13.00;68.20;;;;;;4976733;28;20180;-61
2022/10/04 09:37:49;;;;;;;4.30;2.37;;;13.10;65.10;;;;;;5015237;28;20193;-61
2022/10/04 09:40:33;;;;;;;6.07;2.70;;;12.90;67.70;;;;;;4980769;28;20266;-61
2022/10/04 09:43:08;;;;;;;4.30;2.53;;;12.90;67.20;;;;;;5025556;28;20235;-61
2022/10/04 09:45:58;;;;;;;4.07;2.30;;;12.90;67.80;;;;;;5017787;28;20180;-61
2022/10/04 09:48:41;;;;;;;5.77;2.03;;;13.30;63.70;;;;;;4977367;28;20185;-61
2022/10/04 09:51:39;;;;;;;3.97;2.30;;;13.50;62.20;;;;;;4988877;28;20188;-61
2022/10/04 09:54:10;;;;;;;3.07;2.07;;;13.80;61.60;;;;;;4991036;28;20187;-61
2022/10/04 09:56:39;;;;;;;5.20;2.13;;;13.80;63.10;;;;;;5009903;28;20340;-61
2022/10/04 09:59:26;;;;;;;2.43;1.83;;;13.60;63.80;;;;;;5016299;28;20181;-62
2022/10/04 10:02:27;;;;;;;6.93;1.70;;;13.60;63.60;;;;;;4990022;28;20276;-61
2022/10/04 10:05:30;;;;;;;3.23;1.60;;;13.70;61.20;;;;;;4988650;28;20212;-63
2022/10/04 10:08:24;;;;;;;3.80;1.80;;;13.80;59.20;;;;;;5016792;28;20189;-62
2022/10/04 10:14:21;;;;;;;2.70;1.77;;;14.00;60.00;;;;;;4985199;28;20291;-62
2022/10/04 10:17:14;;;;;;;2.70;1.80;;;14.00;60.40;;;;;;4990133;28;20212;-64
2022/10/04 10:20:07;;;;;;;3.10;1.40;;;13.90;61.40;;;;;;5020116;28;20224;-60
2022/10/04 10:23:13;;;;;;;4.53;1.63;;;14.10;58.20;;;;;;5022645;28;20227;-60
2022/10/04 10:25:42;;;;;;;3.43;1.50;;;14.10;62.20;;;;;;4972095;28;20215;-60
2022/10/04 10:28:42;;;;;;;2.10;1.50;;;14.20;61.70;;;;;;4979045;28;20193;-60
2022/10/04 10:31:23;;;;;;;2.23;1.40;;;14.40;60.00;;;;;;5006984;28;20189;-62
2022/10/04 10:33:57;;;;;;;3.10;1.53;;;14.50;55.70;;;;;;5017904;28;20302;-61
2022/10/04 10:36:40;;;;;;;1.97;1.10;;;14.70;54.70;;;;;;5012592;28;20240;-62
2022/10/04 10:39:48;;;;;;;3.73;1.50;;;14.60;56.80;;;;;;5017232;28;20184;-61
2022/10/04 10:42:38;;;;;;;3.60;1.70;;;14.50;60.10;;;;;;5009777;28;20232;-61
2022/10/04 10:45:43;;;;;;;2.87;1.53;;;14.60;59.60;;;;;;4984712;28;20193;-62
2022/10/04 10:48:27;;;;;;;4.37;1.80;;;14.70;60.70;;;;;;5008455;28;20544;-62
2022/10/04 10:51:30;;;;;;;3.50;1.40;;;14.60;61.00;;;;;;4978896;28;20190;-61
2022/10/04 10:53:59;;;;;;;2.37;1.33;;;14.60;63.10;;;;;;5020668;28;20279;-61
2022/10/04 10:56:38;;;;;;;4.93;1.43;;;15.10;57.00;;;;;;4987654;28;20223;-61
2022/10/04 10:59:16;;;;;;;3.00;1.33;;;15.20;58.70;;;;;;5005934;28;20189;-62
2022/10/04 11:01:46;;;;;;;3.43;1.50;;;15.10;59.40;;;;;;5008532;28;20228;-61
2022/10/04 11:04:34;;;;;;;2.43;1.40;;;15.00;59.70;;;;;;4992120;28;20191;-61
2022/10/04 11:07:41;;;;;;;3.37;1.20;;;15.00;58.10;;;;;;5010698;28;20184;-61
2022/10/04 11:10:09;;;;;;;4.33;1.50;;;15.40;55.10;;;;;;4988307;28;20192;-61
2022/10/04 11:12:46;;;;;;;4.63;1.53;;;15.70;56.20;;;;;;5021201;28;20197;-61
2022/10/04 11:15:33;;;;;;;2.37;1.40;;;15.80;54.50;;;;;;4974252;28;20213;-63
2022/10/04 11:18:06;;;;;;;2.43;1.43;;;15.70;53.80;;;;;;5011142;28;20276;-62
2022/10/04 11:20:54;;;;;;;2.33;1.50;;;15.80;55.90;;;;;;4980624;28;20217;-62
2022/10/04 11:23:44;;;;;;;1.50;1.40;;;15.90;57.50;;;;;;5008424;28;20191;-62
2022/10/04 11:26:28;;;;;;;1.23;1.13;;;16.10;54.20;;;;;;5018385;28;20265;-63
2022/10/04 11:29:11;;;;;;;1.23;1.00;;;16.20;53.80;;;;;;5010331;28;20192;-64
2022/10/04 11:32:00;;;;;;;4.33;1.50;;;16.30;50.30;;;;;;5010817;28;20200;-64
2022/10/04 11:34:45;;;;;;;1.83;1.23;;;16.30;54.80;;;;;;5019836;28;20193;-63
2022/10/04 11:37:45;;;;;;;1.83;1.20;;;16.50;53.20;;;;;;4989543;28;20285;-63
2022/10/04 11:40:29;;;;;;;1.77;1.20;;;16.80;52.50;;;;;;5018149;28;20318;-62
2022/10/04 11:43:13;;;;;;;1.60;1.50;;;16.90;51.20;;;;;;5016819;28;20191;-62
2022/10/04 11:46:03;;;;;;;3.40;1.23;;;16.90;52.50;;;;;;5020019;28;20199;-62
2022/10/04 11:48:34;;;;;;;4.23;1.50;;;17.00;53.30;;;;;;4987029;28;20185;-63
2022/10/04 11:51:18;;;;;;;1.63;1.43;;;17.00;49.80;;;;;;4981407;28;20182;-63
2022/10/04 11:54:08;;;;;;;1.70;1.40;;;17.20;52.50;;;;;;4989743;28;20184;-62
2022/10/04 11:57:13;;;;;;;1.90;1.37;;;17.20;50.80;;;;;;5024083;28;20196;-62
2022/10/04 11:59:55;;;;;;;1.40;1.30;;;17.20;48.90;;;;;;4991353;28;20185;-62
2022/10/04 12:02:27;;;;;;;3.37;1.43;;;17.10;50.00;;;;;;4996249;28;20193;-61
2022/10/04 12:05:37;;;;;;;1.37;1.23;;;17.30;51.60;;;;;;4981314;28;20170;-62
2022/10/04 12:08:17;;;;;;;2.20;1.20;;;17.30;48.70;;;;;;5022826;28;20207;-62
2022/10/04 12:11:06;;;;;;;2.73;1.50;;;17.30;53.20;;;;;;4988410;28;20280;-62
2022/10/04 12:13:55;;;;;;;3.20;1.00;;;17.50;50.60;;;;;;4992276;28;20202;-63
2022/10/04 12:16:34;;;;;;;1.20;1.10;;;18.00;48.10;;;;;;5010201;28;20277;-63
2022/10/04 12:19:24;;;;;;;2.17;1.33;;;17.90;48.30;;;;;;5014869;28;20189;-63
2022/10/04 12:21:59;;;;;;;2.43;1.63;;;17.90;49.70;;;;;;5017663;28;20193;-62
2022/10/04 12:24:37;;;;;;;4.40;1.47;;;18.20;48.20;;;;;;5011827;28;20185;-63
2022/10/04 12:27:27;;;;;;;2.23;1.23;;;18.40;47.30;;;;;;4997744;28;20197;-63
2022/10/04 12:30:15;;;;;;;1.80;1.20;;;18.50;46.20;;;;;;5013479;28;20181;-65
2022/10/04 12:32:52;;;;;;;1.60;1.13;;;18.80;44.50;;;;;;4990821;28;20193;-63
2022/10/04 12:35:29;;;;;;;1.57;1.27;;;18.80;45.60;;;;;;4990543;28;20181;-62
2022/10/04 12:38:05;;;;;;;3.23;1.17;;;19.00;44.60;;;;;;4984293;28;20192;-63
2022/10/04 12:40:47;;;;;;;2.10;1.20;;;19.40;44.50;;;;;;5020431;28;20208;-62
2022/10/04 12:43:15;;;;;;;3.47;1.30;;;19.80;46.80;;;;;;4998491;28;20192;-61
2022/10/04 12:45:55;;;;;;;2.40;1.00;;;20.00;46.80;;;;;;5020841;28;20181;-62
2022/10/04 12:48:38;;;;;;;1.27;1.20;;;20.20;45.60;;;;;;4988731;28;20273;-60
2022/10/04 12:51:21;;;;;;;1.57;1.07;;;20.50;44.30;;;;;;5019863;28;20191;-60
2022/10/04 12:54:36;;;;;;;2.33;1.10;;;20.40;42.80;;;;;;5022988;28;20180;-61
2022/10/04 12:57:14;;;;;;;2.93;1.47;;;20.70;41.70;;;;;;4983174;28;20208;-61
2022/10/04 12:59:48;;;;;;;4.43;1.30;;;20.40;42.30;;;;;;5024276;28;20314;-61
2022/10/04 13:02:50;;;;;;;2.60;1.00;;;20.70;42.40;;;;;;4982188;28;20185;-61
2022/10/04 13:05:46;;;;;;;1.70;1.03;;;20.90;40.90;;;;;;4977312;28;20272;-61
2022/10/04 13:08:30;;;;;;;2.77;1.17;;;20.90;40.00;;;;;;4975661;28;20196;-61
2022/10/04 13:11:21;;;;;;;4.60;1.40;;;21.20;40.40;;;;;;5014421;28;20194;-60
2022/10/04 13:14:14;;;;;;;2.60;1.20;;;21.40;40.50;;;;;;5011064;28;20181;-59
2022/10/04 13:17:12;;;;;;;2.70;1.20;;;21.80;43.00;;;;;;4983663;28;20185;-60
2022/10/04 13:20:02;;;;;;;2.77;1.10;;;22.10;42.00;;;;;;4988425;28;20264;-60
2022/10/04 13:22:49;;;;;;;2.33;1.20;;;22.40;40.70;;;;;;5009622;28;20267;-62
2022/10/04 13:25:30;;;;;;;1.40;1.10;;;22.60;42.00;;;;;;4978498;28;20189;-61
2022/10/04 13:28:32;;;;;;;2.70;1.50;;;23.10;41.50;;;;;;5010437;28;20278;-62
2022/10/04 13:31:03;;;;;;;1.10;0.90;;;22.90;37.80;;;;;;4990956;28;20271;-60
2022/10/04 13:33:36;;;;;;;2.33;1.13;;;23.00;38.70;;;;;;4982899;28;20185;-59
2022/10/04 13:36:28;;;;;;;1.63;1.00;;;23.30;40.00;;;;;;5023237;28;20240;-59
2022/10/04 13:39:30;;;;;;;1.93;1.27;;;23.40;38.00;;;;;;4992912;28;20188;-60
2022/10/04 13:42:11;;;;;;;3.57;1.20;;;23.20;37.20;;;;;;4993045;28;20195;-61
2022/10/04 13:45:00;;;;;;;1.30;1.20;;;22.50;36.70;;;;;;5018279;28;20188;-60
2022/10/04 13:48:00;;;;;;;3.07;1.77;;;23.00;37.00;;;;;;4978504;28;20205;-60
2022/10/04 13:50:56;;;;;;;2.70;1.50;;;22.30;35.40;;;;;;5018297;28;20308;-61
2022/10/04 13:56:36;;;;;;;2.90;1.40;;;22.90;37.80;;;;;;4980968;28;20196;-60
2022/10/04 13:59:41;;;;;;;2.53;1.30;;;22.70;36.80;;;;;;5009761;28;20205;-61
2022/10/04 14:02:35;;;;;;;2.43;1.37;;;22.40;36.60;;;;;;4990187;28;20204;-60
2022/10/04 14:05:38;;;;;;;3.97;1.40;;;22.90;37.30;;;;;;4983527;28;20193;-61
2022/10/04 14:08:24;;;;;;;4.17;1.30;;;23.30;36.30;;;;;;5012307;28;20201;-60
2022/10/04 14:10:59;;;;;;;1.70;1.30;;;23.70;37.50;;;;;;5014196;28;20204;-60
2022/10/04 14:14:02;;;;;;;4.20;1.37;;;23.70;36.70;;;;;;5010633;28;20202;-60
2022/10/04 14:16:50;;;;;;;1.27;1.07;;;24.30;35.40;;;;;;4984047;28;20188;-61